Erastus, North Carolina
Current Conditions -  °F | °C
As of 6:54 PM on Monday 22 Dec 2014 (Local Time) from KAVL Reporting Station
Haze Haze  
Wind Chill: 35°   Ceiling: 200
Heat Index: 40°   Visibility: 3mi
Dew Point: 39°   Wind: 7mph
Humidity: 97%   Direction: 190°S
Pressure: 29.99"   Gusts: NA
Location:  35.2608°N, 83.1173°W
Report Text: KAVL 222354Z 19006KT 3SM BR OVC002 04/04 A2999 RMK AO2 RAB29E38 SLP157 P0000 60000 T00440039 10067 20044 53006
Loading
Personal Weather Stations






























Interactive Weather Map New forecast layout! Learn more

10-Day Weather Forecast

Advertisements
Track Severe Weather on mobile